Eylar, Illinois
Current Conditions -  °F | °C
As of 10:15 AM on Friday 24 Oct 2014 (Local Time) from KPNT Reporting Station
Clear Clear  
Wind Chill: 58°   Ceiling: Unl
Heat Index: 58°   Visibility: 10mi
Dew Point: 53°   Wind: 3mph
Humidity: 82%   Direction: 280°W
Pressure: 30.1"   Gusts: NA
Location:  40.8821°N, 88.4137°W
Report Text: KPNT 241515Z AUTO 28003KT 10SM CLR 15/12 A3010 RMK AO2 T01460116
Loading
Personal Weather Stations






























Interactive Weather Map
Tropical Storm Tracking
New forecast layout! Learn more

10-Day Weather Forecast

Advertisements
Track Severe Weather on mobile